sensor_id;sensor_type;location;lat;lon;timestamp;P1;durP1;ratioP1;P2;durP2;ratioP2
36195;SDS011;22237;51.974;4.616;2024-01-30T00:01:56;2.72;;;1.98;;
36195;SDS011;22237;51.974;4.616;2024-01-30T00:04:21;1.75;;;1.27;;
36195;SDS011;22237;51.974;4.616;2024-01-30T00:06:47;3.70;;;1.55;;
36195;SDS011;22237;51.974;4.616;2024-01-30T00:09:12;1.67;;;1.20;;
36195;SDS011;22237;51.974;4.616;2024-01-30T00:11:37;6.68;;;2.13;;
36195;SDS011;22237;51.974;4.616;2024-01-30T00:14:06;2.00;;;1.75;;
36195;SDS011;22237;51.974;4.616;2024-01-30T00:16:31;1.90;;;1.65;;
36195;SDS011;22237;51.974;4.616;2024-01-30T00:18:56;3.92;;;2.33;;
36195;SDS011;22237;51.974;4.616;2024-01-30T00:21:22;2.33;;;1.65;;
36195;SDS011;22237;51.974;4.616;2024-01-30T00:23:47;2.22;;;1.75;;
36195;SDS011;22237;51.974;4.616;2024-01-30T00:26:12;4.57;;;2.80;;
36195;SDS011;22237;51.974;4.616;2024-01-30T00:28:39;2.15;;;1.50;;
36195;SDS011;22237;51.974;4.616;2024-01-30T00:31:05;1.30;;;1.20;;
36195;SDS011;22237;51.974;4.616;2024-01-30T00:33:30;3.30;;;1.83;;
36195;SDS011;22237;51.974;4.616;2024-01-30T00:35:55;1.85;;;1.67;;
36195;SDS011;22237;51.974;4.616;2024-01-30T00:38:21;4.15;;;1.80;;
36195;SDS011;22237;51.974;4.616;2024-01-30T00:40:46;2.28;;;1.83;;
36195;SDS011;22237;51.974;4.616;2024-01-30T00:43:11;5.75;;;2.33;;
36195;SDS011;22237;51.974;4.616;2024-01-30T00:45:36;6.32;;;2.33;;
36195;SDS011;22237;51.974;4.616;2024-01-30T00:48:02;5.87;;;1.93;;
36195;SDS011;22237;51.974;4.616;2024-01-30T00:50:27;4.03;;;2.40;;
36195;SDS011;22237;51.974;4.616;2024-01-30T00:52:52;2.70;;;1.67;;
36195;SDS011;22237;51.974;4.616;2024-01-30T00:55:17;2.93;;;1.63;;
36195;SDS011;22237;51.974;4.616;2024-01-30T00:57:43;2.17;;;1.75;;
36195;SDS011;22237;51.974;4.616;2024-01-30T01:00:08;7.60;;;1.97;;
36195;SDS011;22237;51.974;4.616;2024-01-30T01:02:37;4.75;;;2.95;;
36195;SDS011;22237;51.974;4.616;2024-01-30T01:05:02;1.92;;;1.23;;
36195;SDS011;22237;51.974;4.616;2024-01-30T01:07:28;3.33;;;2.47;;
36195;SDS011;22237;51.974;4.616;2024-01-30T01:09:53;3.70;;;2.23;;
36195;SDS011;22237;51.974;4.616;2024-01-30T01:12:18;3.70;;;2.23;;
36195;SDS011;22237;51.974;4.616;2024-01-30T01:14:43;4.97;;;2.08;;
36195;SDS011;22237;51.974;4.616;2024-01-30T01:17:09;3.13;;;2.20;;
36195;SDS011;22237;51.974;4.616;2024-01-30T01:19:34;2.55;;;1.63;;
36195;SDS011;22237;51.974;4.616;2024-01-30T01:21:59;3.80;;;3.10;;
36195;SDS011;22237;51.974;4.616;2024-01-30T01:24:24;2.65;;;1.98;;
36195;SDS011;22237;51.974;4.616;2024-01-30T01:26:49;11.17;;;1.53;;
36195;SDS011;22237;51.974;4.616;2024-01-30T01:29:15;6.18;;;2.22;;
36195;SDS011;22237;51.974;4.616;2024-01-30T01:31:40;3.47;;;1.67;;
36195;SDS011;22237;51.974;4.616;2024-01-30T01:34:12;2.50;;;2.13;;
36195;SDS011;22237;51.974;4.616;2024-01-30T01:36:37;4.80;;;1.90;;
36195;SDS011;22237;51.974;4.616;2024-01-30T01:39:03;1.45;;;1.05;;
36195;SDS011;22237;51.974;4.616;2024-01-30T01:41:31;3.80;;;1.92;;
36195;SDS011;22237;51.974;4.616;2024-01-30T01:43:57;3.05;;;2.25;;
36195;SDS011;22237;51.974;4.616;2024-01-30T01:46:22;8.45;;;2.42;;
36195;SDS011;22237;51.974;4.616;2024-01-30T01:48:47;1.48;;;1.38;;
36195;SDS011;22237;51.974;4.616;2024-01-30T01:51:13;3.25;;;2.13;;
36195;SDS011;22237;51.974;4.616;2024-01-30T01:53:38;3.00;;;1.75;;
36195;SDS011;22237;51.974;4.616;2024-01-30T01:56:04;2.42;;;1.40;;
36195;SDS011;22237;51.974;4.616;2024-01-30T01:58:30;4.55;;;3.38;;
36195;SDS011;22237;51.974;4.616;2024-01-30T02:00:56;2.67;;;1.73;;
36195;SDS011;22237;51.974;4.616;2024-01-30T02:03:21;3.97;;;2.63;;
36195;SDS011;22237;51.974;4.616;2024-01-30T02:05:46;3.63;;;1.43;;
36195;SDS011;22237;51.974;4.616;2024-01-30T02:08:12;2.05;;;1.70;;
36195;SDS011;22237;51.974;4.616;2024-01-30T02:10:37;8.00;;;2.97;;
36195;SDS011;22237;51.974;4.616;2024-01-30T02:13:02;2.00;;;1.43;;
36195;SDS011;22237;51.974;4.616;2024-01-30T02:15:28;4.50;;;2.38;;
36195;SDS011;22237;51.974;4.616;2024-01-30T02:17:54;6.28;;;2.38;;
36195;SDS011;22237;51.974;4.616;2024-01-30T02:20:19;1.20;;;1.15;;
36195;SDS011;22237;51.974;4.616;2024-01-30T02:22:44;4.75;;;2.78;;
36195;SDS011;22237;51.974;4.616;2024-01-30T02:25:10;3.28;;;2.10;;
36195;SDS011;22237;51.974;4.616;2024-01-30T02:27:35;2.13;;;1.63;;
36195;SDS011;22237;51.974;4.616;2024-01-30T02:30:00;3.13;;;2.30;;
36195;SDS011;22237;51.974;4.616;2024-01-30T02:32:25;3.10;;;1.70;;
36195;SDS011;22237;51.974;4.616;2024-01-30T02:34:50;2.20;;;1.05;;
36195;SDS011;22237;51.974;4.616;2024-01-30T02:37:16;1.57;;;1.47;;
36195;SDS011;22237;51.974;4.616;2024-01-30T02:39:41;2.08;;;1.58;;
36195;SDS011;22237;51.974;4.616;2024-01-30T02:42:07;3.63;;;2.50;;
36195;SDS011;22237;51.974;4.616;2024-01-30T02:44:32;6.13;;;2.83;;
36195;SDS011;22237;51.974;4.616;2024-01-30T02:46:57;1.07;;;1.07;;
36195;SDS011;22237;51.974;4.616;2024-01-30T02:49:22;2.38;;;1.65;;
36195;SDS011;22237;51.974;4.616;2024-01-30T02:51:47;5.45;;;2.03;;
36195;SDS011;22237;51.974;4.616;2024-01-30T02:54:13;2.92;;;1.80;;
36195;SDS011;22237;51.974;4.616;2024-01-30T02:56:38;1.17;;;1.13;;
36195;SDS011;22237;51.974;4.616;2024-01-30T02:59:03;4.22;;;2.15;;
36195;SDS011;22237;51.974;4.616;2024-01-30T03:01:28;2.87;;;2.10;;
36195;SDS011;22237;51.974;4.616;2024-01-30T03:03:53;1.37;;;1.27;;
36195;SDS011;22237;51.974;4.616;2024-01-30T03:06:19;2.42;;;1.17;;
36195;SDS011;22237;51.974;4.616;2024-01-30T03:08:45;1.67;;;1.58;;
36195;SDS011;22237;51.974;4.616;2024-01-30T03:11:10;4.47;;;2.70;;
36195;SDS011;22237;51.974;4.616;2024-01-30T03:13:35;4.50;;;2.13;;
36195;SDS011;22237;51.974;4.616;2024-01-30T03:16:00;2.17;;;1.70;;
36195;SDS011;22237;51.974;4.616;2024-01-30T03:18:26;4.37;;;2.30;;
36195;SDS011;22237;51.974;4.616;2024-01-30T03:20:51;2.53;;;1.67;;
36195;SDS011;22237;51.974;4.616;2024-01-30T03:23:16;3.67;;;1.67;;
36195;SDS011;22237;51.974;4.616;2024-01-30T03:25:41;1.90;;;1.30;;
36195;SDS011;22237;51.974;4.616;2024-01-30T03:28:06;1.60;;;1.47;;
36195;SDS011;22237;51.974;4.616;2024-01-30T03:30:32;2.38;;;1.55;;
36195;SDS011;22237;51.974;4.616;2024-01-30T03:32:57;4.60;;;1.95;;
36195;SDS011;22237;51.974;4.616;2024-01-30T03:35:22;2.50;;;2.30;;
36195;SDS011;22237;51.974;4.616;2024-01-30T03:37:47;6.18;;;3.08;;
36195;SDS011;22237;51.974;4.616;2024-01-30T03:40:12;2.87;;;1.37;;
36195;SDS011;22237;51.974;4.616;2024-01-30T03:42:38;1.85;;;1.30;;
36195;SDS011;22237;51.974;4.616;2024-01-30T03:45:03;2.17;;;1.83;;
36195;SDS011;22237;51.974;4.616;2024-01-30T03:47:28;3.15;;;1.70;;
36195;SDS011;22237;51.974;4.616;2024-01-30T03:49:54;1.23;;;1.07;;
36195;SDS011;22237;51.974;4.616;2024-01-30T03:52:19;10.70;;;2.40;;
36195;SDS011;22237;51.974;4.616;2024-01-30T03:54:44;1.02;;;1.02;;
36195;SDS011;22237;51.974;4.616;2024-01-30T03:57:09;1.20;;;1.00;;
36195;SDS011;22237;51.974;4.616;2024-01-30T03:59:35;2.00;;;1.63;;
36195;SDS011;22237;51.974;4.616;2024-01-30T04:02:00;1.97;;;1.50;;
36195;SDS011;22237;51.974;4.616;2024-01-30T04:04:25;3.78;;;1.52;;
36195;SDS011;22237;51.974;4.616;2024-01-30T04:06:50;4.23;;;1.43;;
36195;SDS011;22237;51.974;4.616;2024-01-30T04:09:15;11.73;;;1.63;;
36195;SDS011;22237;51.974;4.616;2024-01-30T04:11:41;3.77;;;2.57;;
36195;SDS011;22237;51.974;4.616;2024-01-30T04:14:07;1.48;;;1.33;;
36195;SDS011;22237;51.974;4.616;2024-01-30T04:16:32;4.65;;;1.77;;
36195;SDS011;22237;51.974;4.616;2024-01-30T04:18:57;1.45;;;1.20;;
36195;SDS011;22237;51.974;4.616;2024-01-30T04:21:23;3.67;;;2.00;;
36195;SDS011;22237;51.974;4.616;2024-01-30T04:23:48;4.70;;;1.60;;
36195;SDS011;22237;51.974;4.616;2024-01-30T04:26:13;4.85;;;2.80;;
36195;SDS011;22237;51.974;4.616;2024-01-30T04:28:41;4.43;;;2.67;;
36195;SDS011;22237;51.974;4.616;2024-01-30T04:31:06;4.63;;;2.50;;
36195;SDS011;22237;51.974;4.616;2024-01-30T04:33:31;4.10;;;2.80;;
36195;SDS011;22237;51.974;4.616;2024-01-30T04:35:57;2.13;;;1.90;;
36195;SDS011;22237;51.974;4.616;2024-01-30T04:38:22;4.00;;;2.28;;
36195;SDS011;22237;51.974;4.616;2024-01-30T04:40:47;4.97;;;2.20;;
36195;SDS011;22237;51.974;4.616;2024-01-30T04:43:12;1.43;;;1.30;;
36195;SDS011;22237;51.974;4.616;2024-01-30T04:45:37;3.05;;;2.20;;
36195;SDS011;22237;51.974;4.616;2024-01-30T04:48:03;5.82;;;2.05;;
36195;SDS011;22237;51.974;4.616;2024-01-30T04:50:28;1.52;;;1.17;;
36195;SDS011;22237;51.974;4.616;2024-01-30T04:52:53;3.80;;;2.58;;
36195;SDS011;22237;51.974;4.616;2024-01-30T04:55:18;1.15;;;1.10;;
36195;SDS011;22237;51.974;4.616;2024-01-30T04:57:44;3.40;;;1.93;;
36195;SDS011;22237;51.974;4.616;2024-01-30T05:00:09;7.63;;;1.90;;
36195;SDS011;22237;51.974;4.616;2024-01-30T05:02:34;2.33;;;1.88;;
36195;SDS011;22237;51.974;4.616;2024-01-30T05:05:00;2.13;;;1.52;;
36195;SDS011;22237;51.974;4.616;2024-01-30T05:07:25;1.63;;;1.53;;
36195;SDS011;22237;51.974;4.616;2024-01-30T05:09:50;1.85;;;1.23;;
36195;SDS011;22237;51.974;4.616;2024-01-30T05:12:16;2.78;;;1.40;;
36195;SDS011;22237;51.974;4.616;2024-01-30T05:14:41;2.08;;;1.95;;
36195;SDS011;22237;51.974;4.616;2024-01-30T05:17:06;2.67;;;1.47;;
36195;SDS011;22237;51.974;4.616;2024-01-30T05:19:33;3.95;;;1.98;;
36195;SDS011;22237;51.974;4.616;2024-01-30T05:21:58;1.55;;;1.45;;
36195;SDS011;22237;51.974;4.616;2024-01-30T05:24:23;1.50;;;1.40;;
36195;SDS011;22237;51.974;4.616;2024-01-30T05:26:49;2.50;;;1.60;;
36195;SDS011;22237;51.974;4.616;2024-01-30T05:29:16;3.45;;;2.30;;
36195;SDS011;22237;51.974;4.616;2024-01-30T05:31:41;4.33;;;1.80;;
36195;SDS011;22237;51.974;4.616;2024-01-30T05:34:06;1.53;;;1.43;;
36195;SDS011;22237;51.974;4.616;2024-01-30T05:36:31;0.98;;;0.98;;
36195;SDS011;22237;51.974;4.616;2024-01-30T05:38:57;4.80;;;2.72;;
36195;SDS011;22237;51.974;4.616;2024-01-30T05:41:22;1.35;;;1.25;;
36195;SDS011;22237;51.974;4.616;2024-01-30T05:43:47;4.45;;;2.13;;
36195;SDS011;22237;51.974;4.616;2024-01-30T05:46:13;1.33;;;1.23;;
36195;SDS011;22237;51.974;4.616;2024-01-30T05:48:38;2.67;;;1.80;;
36195;SDS011;22237;51.974;4.616;2024-01-30T05:51:03;1.83;;;1.70;;
36195;SDS011;22237;51.974;4.616;2024-01-30T05:53:29;3.17;;;2.05;;
36195;SDS011;22237;51.974;4.616;2024-01-30T05:55:54;6.30;;;1.85;;
36195;SDS011;22237;51.974;4.616;2024-01-30T05:58:19;5.93;;;2.10;;
36195;SDS011;22237;51.974;4.616;2024-01-30T06:00:44;2.53;;;2.03;;
36195;SDS011;22237;51.974;4.616;2024-01-30T06:03:09;2.17;;;1.67;;
36195;SDS011;22237;51.974;4.616;2024-01-30T06:05:35;5.32;;;1.90;;
36195;SDS011;22237;51.974;4.616;2024-01-30T06:08:00;1.35;;;1.05;;
36195;SDS011;22237;51.974;4.616;2024-01-30T06:10:25;2.50;;;1.50;;
36195;SDS011;22237;51.974;4.616;2024-01-30T06:12:50;3.90;;;2.63;;
36195;SDS011;22237;51.974;4.616;2024-01-30T06:15:16;1.95;;;1.63;;
36195;SDS011;22237;51.974;4.616;2024-01-30T06:17:41;1.75;;;1.52;;
36195;SDS011;22237;51.974;4.616;2024-01-30T06:20:06;3.05;;;1.92;;
36195;SDS011;22237;51.974;4.616;2024-01-30T06:22:32;2.05;;;1.80;;
36195;SDS011;22237;51.974;4.616;2024-01-30T06:24:57;5.13;;;1.40;;
36195;SDS011;22237;51.974;4.616;2024-01-30T06:27:22;2.08;;;1.88;;
36195;SDS011;22237;51.974;4.616;2024-01-30T06:29:48;9.00;;;2.80;;
36195;SDS011;22237;51.974;4.616;2024-01-30T06:32:13;3.53;;;1.88;;
36195;SDS011;22237;51.974;4.616;2024-01-30T06:34:38;2.25;;;1.67;;
36195;SDS011;22237;51.974;4.616;2024-01-30T06:37:05;2.67;;;2.17;;
36195;SDS011;22237;51.974;4.616;2024-01-30T06:39:30;2.88;;;2.13;;
36195;SDS011;22237;51.974;4.616;2024-01-30T06:41:55;4.60;;;1.38;;
36195;SDS011;22237;51.974;4.616;2024-01-30T06:44:20;3.53;;;2.20;;
36195;SDS011;22237;51.974;4.616;2024-01-30T06:46:45;2.30;;;1.60;;
36195;SDS011;22237;51.974;4.616;2024-01-30T06:49:11;3.08;;;1.65;;
36195;SDS011;22237;51.974;4.616;2024-01-30T06:51:36;4.87;;;1.70;;
36195;SDS011;22237;51.974;4.616;2024-01-30T06:54:01;2.33;;;1.83;;
36195;SDS011;22237;51.974;4.616;2024-01-30T06:56:26;2.70;;;1.27;;
36195;SDS011;22237;51.974;4.616;2024-01-30T06:58:52;2.00;;;1.88;;
36195;SDS011;22237;51.974;4.616;2024-01-30T07:01:17;1.60;;;1.17;;
36195;SDS011;22237;51.974;4.616;2024-01-30T07:03:42;4.00;;;2.25;;
36195;SDS011;22237;51.974;4.616;2024-01-30T07:06:08;1.58;;;1.40;;
36195;SDS011;22237;51.974;4.616;2024-01-30T07:08:33;1.02;;;1.00;;
36195;SDS011;22237;51.974;4.616;2024-01-30T07:10:59;3.58;;;2.20;;
36195;SDS011;22237;51.974;4.616;2024-01-30T07:13:24;3.65;;;2.72;;
36195;SDS011;22237;51.974;4.616;2024-01-30T07:15:49;1.42;;;1.23;;
36195;SDS011;22237;51.974;4.616;2024-01-30T07:18:14;2.87;;;1.43;;
36195;SDS011;22237;51.974;4.616;2024-01-30T07:20:40;1.27;;;1.10;;
36195;SDS011;22237;51.974;4.616;2024-01-30T07:23:11;8.13;;;2.28;;
36195;SDS011;22237;51.974;4.616;2024-01-30T07:25:38;2.15;;;1.95;;
36195;SDS011;22237;51.974;4.616;2024-01-30T07:28:06;2.65;;;1.67;;
36195;SDS011;22237;51.974;4.616;2024-01-30T07:30:31;1.58;;;1.45;;
36195;SDS011;22237;51.974;4.616;2024-01-30T07:32:56;1.38;;;1.30;;
36195;SDS011;22237;51.974;4.616;2024-01-30T07:35:22;2.47;;;1.63;;
36195;SDS011;22237;51.974;4.616;2024-01-30T07:37:47;1.37;;;1.30;;
36195;SDS011;22237;51.974;4.616;2024-01-30T07:40:12;3.40;;;1.40;;
36195;SDS011;22237;51.974;4.616;2024-01-30T07:42:37;3.97;;;1.55;;
36195;SDS011;22237;51.974;4.616;2024-01-30T07:45:02;5.27;;;2.20;;
36195;SDS011;22237;51.974;4.616;2024-01-30T07:47:28;3.83;;;2.03;;
36195;SDS011;22237;51.974;4.616;2024-01-30T07:49:53;2.73;;;1.33;;
36195;SDS011;22237;51.974;4.616;2024-01-30T07:52:19;5.05;;;1.05;;
36195;SDS011;22237;51.974;4.616;2024-01-30T07:54:47;2.95;;;1.50;;
36195;SDS011;22237;51.974;4.616;2024-01-30T07:57:12;3.08;;;1.77;;
36195;SDS011;22237;51.974;4.616;2024-01-30T07:59:37;10.65;;;2.08;;
36195;SDS011;22237;51.974;4.616;2024-01-30T08:02:03;8.38;;;1.25;;
36195;SDS011;22237;51.974;4.616;2024-01-30T08:04:28;2.38;;;1.75;;
36195;SDS011;22237;51.974;4.616;2024-01-30T08:06:53;3.23;;;1.07;;
36195;SDS011;22237;51.974;4.616;2024-01-30T08:09:18;3.33;;;2.57;;
36195;SDS011;22237;51.974;4.616;2024-01-30T08:11:44;4.57;;;1.50;;
36195;SDS011;22237;51.974;4.616;2024-01-30T08:14:09;2.92;;;1.55;;
36195;SDS011;22237;51.974;4.616;2024-01-30T08:16:34;1.83;;;1.73;;
36195;SDS011;22237;51.974;4.616;2024-01-30T08:18:59;4.68;;;1.95;;
36195;SDS011;22237;51.974;4.616;2024-01-30T08:21:26;0.73;;;0.73;;
36195;SDS011;22237;51.974;4.616;2024-01-30T08:23:51;0.88;;;0.88;;
36195;SDS011;22237;51.974;4.616;2024-01-30T08:26:17;2.83;;;1.80;;
36195;SDS011;22237;51.974;4.616;2024-01-30T08:28:42;6.07;;;2.17;;
36195;SDS011;22237;51.974;4.616;2024-01-30T08:31:07;4.47;;;1.77;;
36195;SDS011;22237;51.974;4.616;2024-01-30T08:33:35;4.65;;;1.70;;
36195;SDS011;22237;51.974;4.616;2024-01-30T08:36:00;2.50;;;1.58;;
36195;SDS011;22237;51.974;4.616;2024-01-30T08:38:25;3.75;;;1.77;;
36195;SDS011;22237;51.974;4.616;2024-01-30T08:40:50;0.57;;;0.57;;
36195;SDS011;22237;51.974;4.616;2024-01-30T08:43:16;5.78;;;2.42;;
36195;SDS011;22237;51.974;4.616;2024-01-30T08:45:41;1.60;;;1.42;;
36195;SDS011;22237;51.974;4.616;2024-01-30T08:48:07;1.42;;;1.33;;
36195;SDS011;22237;51.974;4.616;2024-01-30T08:50:33;1.67;;;1.45;;
36195;SDS011;22237;51.974;4.616;2024-01-30T08:52:58;1.92;;;1.73;;
36195;SDS011;22237;51.974;4.616;2024-01-30T08:55:23;2.30;;;1.58;;
36195;SDS011;22237;51.974;4.616;2024-01-30T08:57:48;1.75;;;1.60;;
36195;SDS011;22237;51.974;4.616;2024-01-30T09:00:14;4.80;;;1.20;;
36195;SDS011;22237;51.974;4.616;2024-01-30T09:02:39;1.67;;;1.55;;
36195;SDS011;22237;51.974;4.616;2024-01-30T09:05:04;7.93;;;1.60;;
36195;SDS011;22237;51.974;4.616;2024-01-30T09:07:30;2.95;;;1.65;;
36195;SDS011;22237;51.974;4.616;2024-01-30T09:09:55;0.87;;;0.83;;
36195;SDS011;22237;51.974;4.616;2024-01-30T09:12:20;0.50;;;0.50;;
36195;SDS011;22237;51.974;4.616;2024-01-30T09:14:45;6.53;;;1.90;;
36195;SDS011;22237;51.974;4.616;2024-01-30T09:17:10;3.08;;;1.05;;
36195;SDS011;22237;51.974;4.616;2024-01-30T09:19:36;6.18;;;1.60;;
36195;SDS011;22237;51.974;4.616;2024-01-30T09:22:01;5.47;;;1.88;;
36195;SDS011;22237;51.974;4.616;2024-01-30T09:24:26;3.70;;;1.55;;
36195;SDS011;22237;51.974;4.616;2024-01-30T09:26:52;3.58;;;2.40;;
36195;SDS011;22237;51.974;4.616;2024-01-30T09:29:17;5.83;;;2.43;;
36195;SDS011;22237;51.974;4.616;2024-01-30T09:31:43;4.87;;;2.10;;
36195;SDS011;22237;51.974;4.616;2024-01-30T09:34:08;1.00;;;0.95;;
36195;SDS011;22237;51.974;4.616;2024-01-30T09:36:33;2.00;;;1.43;;
36195;SDS011;22237;51.974;4.616;2024-01-30T09:38:58;4.30;;;1.30;;
36195;SDS011;22237;51.974;4.616;2024-01-30T09:41:24;2.97;;;1.70;;
36195;SDS011;22237;51.974;4.616;2024-01-30T09:43:49;3.25;;;2.28;;
36195;SDS011;22237;51.974;4.616;2024-01-30T09:46:16;2.10;;;1.90;;
36195;SDS011;22237;51.974;4.616;2024-01-30T09:48:42;2.50;;;1.67;;
36195;SDS011;22237;51.974;4.616;2024-01-30T09:51:08;9.25;;;1.13;;
36195;SDS011;22237;51.974;4.616;2024-01-30T09:53:34;2.35;;;1.13;;
36195;SDS011;22237;51.974;4.616;2024-01-30T09:56:02;5.03;;;1.55;;
36195;SDS011;22237;51.974;4.616;2024-01-30T09:58:27;3.25;;;1.55;;
36195;SDS011;22237;51.974;4.616;2024-01-30T10:00:53;0.73;;;0.73;;
36195;SDS011;22237;51.974;4.616;2024-01-30T10:03:19;5.03;;;1.35;;
36195;SDS011;22237;51.974;4.616;2024-01-30T10:05:45;7.10;;;1.85;;
36195;SDS011;22237;51.974;4.616;2024-01-30T10:08:15;1.85;;;1.00;;
36195;SDS011;22237;51.974;4.616;2024-01-30T10:10:41;1.15;;;1.05;;
36195;SDS011;22237;51.974;4.616;2024-01-30T10:13:07;17.83;;;1.17;;
36195;SDS011;22237;51.974;4.616;2024-01-30T10:15:32;1.10;;;0.87;;
36195;SDS011;22237;51.974;4.616;2024-01-30T10:17:57;1.98;;;0.85;;
36195;SDS011;22237;51.974;4.616;2024-01-30T10:20:24;0.80;;;0.80;;
36195;SDS011;22237;51.974;4.616;2024-01-30T10:22:49;4.93;;;2.38;;
36195;SDS011;22237;51.974;4.616;2024-01-30T10:25:15;1.45;;;1.35;;
36195;SDS011;22237;51.974;4.616;2024-01-30T10:27:40;1.85;;;0.63;;
36195;SDS011;22237;51.974;4.616;2024-01-30T10:30:05;0.88;;;0.63;;
36195;SDS011;22237;51.974;4.616;2024-01-30T10:32:31;0.90;;;0.50;;
36195;SDS011;22237;51.974;4.616;2024-01-30T10:34:56;2.38;;;0.63;;
36195;SDS011;22237;51.974;4.616;2024-01-30T10:37:21;0.40;;;0.40;;
36195;SDS011;22237;51.974;4.616;2024-01-30T10:39:49;6.93;;;0.40;;
36195;SDS011;22237;51.974;4.616;2024-01-30T10:42:18;0.30;;;0.30;;
36195;SDS011;22237;51.974;4.616;2024-01-30T10:47:10;0.53;;;0.50;;
36195;SDS011;22237;51.974;4.616;2024-01-30T10:49:36;0.25;;;0.25;;
36195;SDS011;22237;51.974;4.616;2024-01-30T10:52:05;1.30;;;0.98;;
36195;SDS011;22237;51.974;4.616;2024-01-30T10:54:30;0.43;;;0.43;;
36195;SDS011;22237;51.974;4.616;2024-01-30T10:56:56;0.38;;;0.38;;
36195;SDS011;22237;51.974;4.616;2024-01-30T10:59:23;0.52;;;0.52;;
36195;SDS011;22237;51.974;4.616;2024-01-30T11:01:48;2.10;;;1.25;;
36195;SDS011;22237;51.974;4.616;2024-01-30T11:04:15;0.10;;;0.10;;
36195;SDS011;22237;51.974;4.616;2024-01-30T11:06:41;0.25;;;0.25;;
36195;SDS011;22237;51.974;4.616;2024-01-30T11:09:09;0.40;;;0.40;;
36195;SDS011;22237;51.974;4.616;2024-01-30T11:14:33;0.60;;;0.52;;
36195;SDS011;22237;51.974;4.616;2024-01-30T11:16:58;11.20;;;1.65;;
36195;SDS011;22237;51.974;4.616;2024-01-30T11:19:24;0.38;;;0.38;;
36195;SDS011;22237;51.974;4.616;2024-01-30T11:21:53;4.50;;;0.43;;
36195;SDS011;22237;51.974;4.616;2024-01-30T11:24:19;0.15;;;0.15;;
36195;SDS011;22237;51.974;4.616;2024-01-30T11:26:45;0.20;;;0.20;;
36195;SDS011;22237;51.974;4.616;2024-01-30T11:29:13;0.22;;;0.22;;
36195;SDS011;22237;51.974;4.616;2024-01-30T11:31:38;0.20;;;0.20;;
36195;SDS011;22237;51.974;4.616;2024-01-30T11:34:03;0.20;;;0.20;;
36195;SDS011;22237;51.974;4.616;2024-01-30T11:36:30;0.35;;;0.35;;
36195;SDS011;22237;51.974;4.616;2024-01-30T11:38:57;1.65;;;0.63;;
36195;SDS011;22237;51.974;4.616;2024-01-30T11:41:22;3.08;;;0.70;;
36195;SDS011;22237;51.974;4.616;2024-01-30T11:43:54;0.22;;;0.22;;
36195;SDS011;22237;51.974;4.616;2024-01-30T11:46:19;0.25;;;0.25;;
36195;SDS011;22237;51.974;4.616;2024-01-30T11:48:44;3.40;;;0.68;;
36195;SDS011;22237;51.974;4.616;2024-01-30T11:51:11;0.22;;;0.22;;
36195;SDS011;22237;51.974;4.616;2024-01-30T11:53:36;0.98;;;0.45;;
36195;SDS011;22237;51.974;4.616;2024-01-30T11:56:08;8.20;;;0.60;;
36195;SDS011;22237;51.974;4.616;2024-01-30T11:58:33;0.20;;;0.20;;
36195;SDS011;22237;51.974;4.616;2024-01-30T12:00:58;0.20;;;0.20;;
36195;SDS011;22237;51.974;4.616;2024-01-30T12:03:24;0.98;;;0.30;;
36195;SDS011;22237;51.974;4.616;2024-01-30T12:05:56;0.10;;;0.10;;
36195;SDS011;22237;51.974;4.616;2024-01-30T12:08:22;0.35;;;0.35;;
36195;SDS011;22237;51.974;4.616;2024-01-30T12:10:55;0.10;;;0.10;;
36195;SDS011;22237;51.974;4.616;2024-01-30T12:13:20;0.30;;;0.30;;
36195;SDS011;22237;51.974;4.616;2024-01-30T12:15:45;0.15;;;0.15;;
36195;SDS011;22237;51.974;4.616;2024-01-30T12:18:10;0.10;;;0.10;;
36195;SDS011;22237;51.974;4.616;2024-01-30T12:20:36;0.75;;;0.75;;
36195;SDS011;22237;51.974;4.616;2024-01-30T12:23:01;1.15;;;1.02;;
36195;SDS011;22237;51.974;4.616;2024-01-30T12:25:26;0.10;;;0.10;;
36195;SDS011;22237;51.974;4.616;2024-01-30T12:27:52;17.52;;;0.65;;
36195;SDS011;22237;51.974;4.616;2024-01-30T12:30:18;0.10;;;0.10;;
36195;SDS011;22237;51.974;4.616;2024-01-30T12:32:44;7.10;;;0.32;;
36195;SDS011;22237;51.974;4.616;2024-01-30T12:35:10;0.20;;;0.20;;
36195;SDS011;22237;51.974;4.616;2024-01-30T12:37:35;0.60;;;0.50;;
36195;SDS011;22237;51.974;4.616;2024-01-30T12:40:01;0.20;;;0.20;;
36195;SDS011;22237;51.974;4.616;2024-01-30T12:42:26;1.00;;;0.43;;
36195;SDS011;22237;51.974;4.616;2024-01-30T12:44:52;0.25;;;0.25;;
36195;SDS011;22237;51.974;4.616;2024-01-30T12:47:17;0.30;;;0.30;;
36195;SDS011;22237;51.974;4.616;2024-01-30T12:49:43;6.72;;;0.43;;
36195;SDS011;22237;51.974;4.616;2024-01-30T12:52:09;2.58;;;0.73;;
36195;SDS011;22237;51.974;4.616;2024-01-30T12:54:34;0.13;;;0.13;;
36195;SDS011;22237;51.974;4.616;2024-01-30T12:57:00;11.40;;;0.95;;
36195;SDS011;22237;51.974;4.616;2024-01-30T12:59:25;0.20;;;0.20;;
36195;SDS011;22237;51.974;4.616;2024-01-30T13:01:50;0.32;;;0.32;;
36195;SDS011;22237;51.974;4.616;2024-01-30T13:04:15;0.25;;;0.25;;
36195;SDS011;22237;51.974;4.616;2024-01-30T13:06:41;0.63;;;0.63;;
36195;SDS011;22237;51.974;4.616;2024-01-30T13:09:06;0.90;;;0.30;;
36195;SDS011;22237;51.974;4.616;2024-01-30T13:11:32;0.47;;;0.47;;
36195;SDS011;22237;51.974;4.616;2024-01-30T13:13:57;1.50;;;0.70;;
36195;SDS011;22237;51.974;4.616;2024-01-30T13:16:22;3.08;;;0.60;;
36195;SDS011;22237;51.974;4.616;2024-01-30T13:18:48;0.10;;;0.10;;
36195;SDS011;22237;51.974;4.616;2024-01-30T13:21:13;0.20;;;0.20;;
36195;SDS011;22237;51.974;4.616;2024-01-30T13:23:38;0.20;;;0.20;;
36195;SDS011;22237;51.974;4.616;2024-01-30T13:26:04;0.20;;;0.20;;
36195;SDS011;22237;51.974;4.616;2024-01-30T13:28:29;1.67;;;0.82;;
36195;SDS011;22237;51.974;4.616;2024-01-30T13:30:54;1.48;;;0.52;;
36195;SDS011;22237;51.974;4.616;2024-01-30T13:33:19;0.23;;;0.20;;
36195;SDS011;22237;51.974;4.616;2024-01-30T13:35:44;0.10;;;0.10;;
36195;SDS011;22237;51.974;4.616;2024-01-30T13:38:10;0.20;;;0.20;;
36195;SDS011;22237;51.974;4.616;2024-01-30T13:40:35;4.03;;;0.28;;
36195;SDS011;22237;51.974;4.616;2024-01-30T13:43:00;0.20;;;0.20;;
36195;SDS011;22237;51.974;4.616;2024-01-30T13:45:25;0.43;;;0.35;;
36195;SDS011;22237;51.974;4.616;2024-01-30T13:47:51;0.30;;;0.30;;
36195;SDS011;22237;51.974;4.616;2024-01-30T13:50:16;0.53;;;0.37;;
36195;SDS011;22237;51.974;4.616;2024-01-30T13:52:42;0.20;;;0.20;;
36195;SDS011;22237;51.974;4.616;2024-01-30T13:55:07;0.35;;;0.35;;
36195;SDS011;22237;51.974;4.616;2024-01-30T13:57:32;0.55;;;0.55;;
36195;SDS011;22237;51.974;4.616;2024-01-30T14:00:00;0.20;;;0.20;;
36195;SDS011;22237;51.974;4.616;2024-01-30T14:02:26;0.30;;;0.30;;
36195;SDS011;22237;51.974;4.616;2024-01-30T14:04:51;0.40;;;0.40;;
36195;SDS011;22237;51.974;4.616;2024-01-30T14:07:16;0.30;;;0.30;;
36195;SDS011;22237;51.974;4.616;2024-01-30T14:09:43;0.73;;;0.73;;
36195;SDS011;22237;51.974;4.616;2024-01-30T14:12:08;0.40;;;0.40;;
36195;SDS011;22237;51.974;4.616;2024-01-30T14:14:33;0.30;;;0.30;;
36195;SDS011;22237;51.974;4.616;2024-01-30T14:16:59;1.63;;;1.53;;
36195;SDS011;22237;51.974;4.616;2024-01-30T14:19:24;11.63;;;1.23;;
36195;SDS011;22237;51.974;4.616;2024-01-30T14:21:49;0.37;;;0.37;;
36195;SDS011;22237;51.974;4.616;2024-01-30T14:24:15;0.95;;;0.50;;
36195;SDS011;22237;51.974;4.616;2024-01-30T14:26:40;0.50;;;0.50;;
36195;SDS011;22237;51.974;4.616;2024-01-30T14:29:05;0.30;;;0.30;;
36195;SDS011;22237;51.974;4.616;2024-01-30T14:31:30;0.57;;;0.57;;
36195;SDS011;22237;51.974;4.616;2024-01-30T14:33:55;4.38;;;0.70;;
36195;SDS011;22237;51.974;4.616;2024-01-30T14:36:21;6.22;;;0.47;;
36195;SDS011;22237;51.974;4.616;2024-01-30T14:38:46;0.30;;;0.30;;
36195;SDS011;22237;51.974;4.616;2024-01-30T14:41:11;0.17;;;0.17;;
36195;SDS011;22237;51.974;4.616;2024-01-30T14:43:37;3.90;;;1.65;;